Impacts TAF Board
For situational awareness. Not to be used for flight planning purposes.
IDs:

KSFO - San Francisco Intl, CA, US

Issued at 1456 UTC 01 Mar 2021
Updated at 1628 UTC 01 Mar 2021
Potential Impact None Slight Moderate High
Time1556Z 01/17Z 01/18Z 01/19Z 01/20Z 01/21Z 01/22Z 01/23Z 02/00Z 02/01Z 02/02Z 02/03Z 02/04Z 02/05Z>>
Type OBS PRVL PRVL PRVL PRVL PRVL PRVL PRVL PRVL PRVL PRVL PRVL PRVL PRVL
VIS 10 >6 >6 >6 >6 >6 >6 >6 >6 >6 >6 >6 >6 >6
CIG -- -- -- -- -- -- -- -- -- -- -- -- -- --
Cover CLR FEW FEW FEW FEW FEW SKC SKC SKC SKC FEW FEW FEW FEW
FltCat VFR VFR VFR VFR VFR VFR VFR VFR VFR VFR VFR VFR VFR VFR
WX -- -- -- -- -- -- -- -- -- -- -- -- -- --
WDir VRB VRB VRB VRB VRB VRB 160 160 160 160 270 270 270 270
WSpd 0 5 5 5 5 5 9 9 9 9 7 7 7 7
WGst -- -- -- -- -- -- -- -- -- -- -- -- -- --
Raw TAF
KSFO 011456Z 0115/0218 VRB05KT P6SM FEW200
  FM012200 16009KT P6SM SKC
  FM020200 27007KT P6SM FEW200
  FM020600 VRB04KT P6SM SCT200


Raw METAR
KSFO 011556Z 00000KT 10SM CLR 11/02 A3016 RMK AO2 SLP212 T01110022
KSFO 011456Z 28007KT 10SM CLR 07/01 A3015 RMK AO2 SLP209 T00720006 53003 $
KSFO 011356Z 28003KT 10SM CLR 07/00 A3014 RMK AO2 SLP206 T00720000 $

METAR Board
Radar Display
Forecast Discussion
For situational awareness. Not to be used for flight planning purposes.